sensor_id;sensor_type;location;lat;lon;timestamp;P1;durP1;ratioP1;P2;durP2;ratioP2
9254;SDS011;4663;49.120;9.730;2022-11-15T00:01:06;16.97;;;15.83;;
9254;SDS011;4663;49.120;9.730;2022-11-15T00:03:32;17.53;;;16.43;;
9254;SDS011;4663;49.120;9.730;2022-11-15T00:06:02;17.75;;;16.48;;
9254;SDS011;4663;49.120;9.730;2022-11-15T00:08:29;16.95;;;15.77;;
9254;SDS011;4663;49.120;9.730;2022-11-15T00:10:59;17.13;;;15.93;;
9254;SDS011;4663;49.120;9.730;2022-11-15T00:13:26;17.10;;;16.10;;
9254;SDS011;4663;49.120;9.730;2022-11-15T00:15:52;15.73;;;14.60;;
9254;SDS011;4663;49.120;9.730;2022-11-15T00:18:17;15.37;;;14.50;;
9254;SDS011;4663;49.120;9.730;2022-11-15T00:20:43;16.50;;;15.40;;
9254;SDS011;4663;49.120;9.730;2022-11-15T00:23:09;16.97;;;15.93;;
9254;SDS011;4663;49.120;9.730;2022-11-15T00:25:34;16.90;;;15.80;;
9254;SDS011;4663;49.120;9.730;2022-11-15T00:28:00;16.63;;;15.63;;
9254;SDS011;4663;49.120;9.730;2022-11-15T00:30:27;16.80;;;15.70;;
9254;SDS011;4663;49.120;9.730;2022-11-15T00:32:52;16.60;;;15.53;;
9254;SDS011;4663;49.120;9.730;2022-11-15T00:35:18;18.20;;;16.90;;
9254;SDS011;4663;49.120;9.730;2022-11-15T00:37:44;17.17;;;15.97;;
9254;SDS011;4663;49.120;9.730;2022-11-15T00:40:10;16.10;;;15.03;;
9254;SDS011;4663;49.120;9.730;2022-11-15T00:42:37;16.80;;;15.70;;
9254;SDS011;4663;49.120;9.730;2022-11-15T00:45:03;17.87;;;16.77;;
9254;SDS011;4663;49.120;9.730;2022-11-15T00:47:28;16.60;;;15.50;;
9254;SDS011;4663;49.120;9.730;2022-11-15T00:49:54;17.70;;;16.50;;
9254;SDS011;4663;49.120;9.730;2022-11-15T00:52:19;17.57;;;16.23;;
9254;SDS011;4663;49.120;9.730;2022-11-15T00:54:44;16.90;;;15.60;;
9254;SDS011;4663;49.120;9.730;2022-11-15T00:57:10;17.10;;;15.87;;
9254;SDS011;4663;49.120;9.730;2022-11-15T00:59:35;17.13;;;16.03;;
9254;SDS011;4663;49.120;9.730;2022-11-15T01:02:00;16.83;;;15.40;;
9254;SDS011;4663;49.120;9.730;2022-11-15T01:04:26;16.87;;;15.87;;
9254;SDS011;4663;49.120;9.730;2022-11-15T01:06:51;17.63;;;16.40;;
9254;SDS011;4663;49.120;9.730;2022-11-15T01:09:17;17.73;;;16.40;;
9254;SDS011;4663;49.120;9.730;2022-11-15T01:11:42;17.00;;;15.93;;
9254;SDS011;4663;49.120;9.730;2022-11-15T01:14:08;17.53;;;16.43;;
9254;SDS011;4663;49.120;9.730;2022-11-15T01:16:33;17.10;;;15.90;;
9254;SDS011;4663;49.120;9.730;2022-11-15T01:18:59;18.00;;;16.73;;
9254;SDS011;4663;49.120;9.730;2022-11-15T01:21:25;17.13;;;16.03;;
9254;SDS011;4663;49.120;9.730;2022-11-15T01:23:54;16.60;;;15.53;;
9254;SDS011;4663;49.120;9.730;2022-11-15T01:26:20;17.83;;;16.63;;
9254;SDS011;4663;49.120;9.730;2022-11-15T01:28:46;17.23;;;15.90;;
9254;SDS011;4663;49.120;9.730;2022-11-15T01:31:12;17.27;;;16.13;;
9254;SDS011;4663;49.120;9.730;2022-11-15T01:33:40;21.37;;;19.57;;
9254;SDS011;4663;49.120;9.730;2022-11-15T01:36:13;22.27;;;20.47;;
9254;SDS011;4663;49.120;9.730;2022-11-15T01:38:40;23.80;;;21.97;;
9254;SDS011;4663;49.120;9.730;2022-11-15T01:41:06;22.20;;;20.80;;
9254;SDS011;4663;49.120;9.730;2022-11-15T01:43:33;23.23;;;21.63;;
9254;SDS011;4663;49.120;9.730;2022-11-15T01:49:02;28.07;;;26.53;;
9254;SDS011;4663;49.120;9.730;2022-11-15T01:51:31;26.07;;;24.50;;
9254;SDS011;4663;49.120;9.730;2022-11-15T01:54:00;26.80;;;24.93;;
9254;SDS011;4663;49.120;9.730;2022-11-15T01:56:31;27.60;;;25.93;;
9254;SDS011;4663;49.120;9.730;2022-11-15T01:59:02;28.73;;;27.20;;
9254;SDS011;4663;49.120;9.730;2022-11-15T02:01:29;28.37;;;26.63;;
9254;SDS011;4663;49.120;9.730;2022-11-15T02:04:00;30.20;;;28.47;;
9254;SDS011;4663;49.120;9.730;2022-11-15T02:06:32;32.10;;;30.13;;
9254;SDS011;4663;49.120;9.730;2022-11-15T02:08:58;32.03;;;30.37;;
9254;SDS011;4663;49.120;9.730;2022-11-15T02:11:25;33.30;;;31.57;;
9254;SDS011;4663;49.120;9.730;2022-11-15T02:13:51;37.10;;;34.60;;
9254;SDS011;4663;49.120;9.730;2022-11-15T02:24:29;48.57;;;46.07;;
9254;SDS011;4663;49.120;9.730;2022-11-15T02:32:44;46.20;;;43.80;;
9254;SDS011;4663;49.120;9.730;2022-11-15T02:35:23;46.20;;;43.90;;
9254;SDS011;4663;49.120;9.730;2022-11-15T02:38:00;49.07;;;46.63;;
9254;SDS011;4663;49.120;9.730;2022-11-15T02:40:39;44.80;;;42.40;;
9254;SDS011;4663;49.120;9.730;2022-11-15T02:43:14;41.67;;;39.60;;
9254;SDS011;4663;49.120;9.730;2022-11-15T02:46:49;36.00;;;34.17;;
9254;SDS011;4663;49.120;9.730;2022-11-15T02:49:15;31.03;;;29.40;;
9254;SDS011;4663;49.120;9.730;2022-11-15T02:51:42;32.00;;;30.27;;
9254;SDS011;4663;49.120;9.730;2022-11-15T02:54:14;28.97;;;27.50;;
9254;SDS011;4663;49.120;9.730;2022-11-15T02:56:43;29.90;;;28.17;;
9254;SDS011;4663;49.120;9.730;2022-11-15T03:02:07;27.23;;;25.80;;
9254;SDS011;4663;49.120;9.730;2022-11-15T03:04:37;24.90;;;23.57;;
9254;SDS011;4663;49.120;9.730;2022-11-15T03:12:28;21.67;;;20.30;;
9254;SDS011;4663;49.120;9.730;2022-11-15T03:15:18;18.93;;;17.83;;
9254;SDS011;4663;49.120;9.730;2022-11-15T03:17:50;17.87;;;16.77;;
9254;SDS011;4663;49.120;9.730;2022-11-15T03:20:20;19.53;;;18.37;;
9254;SDS011;4663;49.120;9.730;2022-11-15T03:22:46;19.87;;;18.33;;
9254;SDS011;4663;49.120;9.730;2022-11-15T03:25:17;18.03;;;16.97;;
9254;SDS011;4663;49.120;9.730;2022-11-15T03:27:48;18.37;;;17.13;;
9254;SDS011;4663;49.120;9.730;2022-11-15T03:30:17;18.37;;;17.07;;
9254;SDS011;4663;49.120;9.730;2022-11-15T03:32:48;16.63;;;15.60;;
9254;SDS011;4663;49.120;9.730;2022-11-15T03:35:19;17.03;;;16.03;;
9254;SDS011;4663;49.120;9.730;2022-11-15T03:40:33;16.10;;;15.07;;
9254;SDS011;4663;49.120;9.730;2022-11-15T03:43:14;16.90;;;15.80;;
9254;SDS011;4663;49.120;9.730;2022-11-15T03:45:54;16.13;;;15.13;;
9254;SDS011;4663;49.120;9.730;2022-11-15T03:48:35;16.27;;;15.07;;
9254;SDS011;4663;49.120;9.730;2022-11-15T03:51:04;15.43;;;14.47;;
9254;SDS011;4663;49.120;9.730;2022-11-15T03:53:30;15.20;;;14.13;;
9254;SDS011;4663;49.120;9.730;2022-11-15T03:55:56;15.73;;;14.70;;
9254;SDS011;4663;49.120;9.730;2022-11-15T03:58:22;15.73;;;14.73;;
9254;SDS011;4663;49.120;9.730;2022-11-15T04:00:48;15.73;;;14.53;;
9254;SDS011;4663;49.120;9.730;2022-11-15T04:03:13;15.77;;;14.77;;
9254;SDS011;4663;49.120;9.730;2022-11-15T04:05:38;15.70;;;14.60;;
9254;SDS011;4663;49.120;9.730;2022-11-15T04:08:04;16.33;;;15.23;;
9254;SDS011;4663;49.120;9.730;2022-11-15T04:10:29;14.90;;;13.90;;
9254;SDS011;4663;49.120;9.730;2022-11-15T04:12:54;15.97;;;14.87;;
9254;SDS011;4663;49.120;9.730;2022-11-15T04:15:21;16.17;;;15.13;;
9254;SDS011;4663;49.120;9.730;2022-11-15T04:17:48;15.43;;;14.53;;
9254;SDS011;4663;49.120;9.730;2022-11-15T04:23:07;16.10;;;15.03;;
9254;SDS011;4663;49.120;9.730;2022-11-15T04:25:54;15.60;;;14.43;;
9254;SDS011;4663;49.120;9.730;2022-11-15T04:28:21;15.17;;;14.37;;
9254;SDS011;4663;49.120;9.730;2022-11-15T04:30:47;16.20;;;15.20;;
9254;SDS011;4663;49.120;9.730;2022-11-15T04:33:12;17.03;;;15.83;;
9254;SDS011;4663;49.120;9.730;2022-11-15T04:35:38;16.27;;;15.23;;
9254;SDS011;4663;49.120;9.730;2022-11-15T04:38:05;16.53;;;15.33;;
9254;SDS011;4663;49.120;9.730;2022-11-15T04:40:33;16.97;;;15.97;;
9254;SDS011;4663;49.120;9.730;2022-11-15T04:42:58;16.93;;;15.87;;
9254;SDS011;4663;49.120;9.730;2022-11-15T04:45:24;16.13;;;15.03;;
9254;SDS011;4663;49.120;9.730;2022-11-15T04:47:49;16.83;;;15.73;;
9254;SDS011;4663;49.120;9.730;2022-11-15T04:50:15;16.10;;;14.90;;
9254;SDS011;4663;49.120;9.730;2022-11-15T04:52:41;17.07;;;15.87;;
9254;SDS011;4663;49.120;9.730;2022-11-15T04:55:11;16.67;;;15.67;;
9254;SDS011;4663;49.120;9.730;2022-11-15T04:57:37;15.53;;;14.53;;
9254;SDS011;4663;49.120;9.730;2022-11-15T05:00:04;17.50;;;16.40;;
9254;SDS011;4663;49.120;9.730;2022-11-15T05:02:30;16.43;;;15.23;;
9254;SDS011;4663;49.120;9.730;2022-11-15T05:05:16;15.87;;;14.87;;
9254;SDS011;4663;49.120;9.730;2022-11-15T05:07:41;17.33;;;16.33;;
9254;SDS011;4663;49.120;9.730;2022-11-15T05:10:07;17.10;;;16.10;;
9254;SDS011;4663;49.120;9.730;2022-11-15T05:12:33;16.80;;;15.80;;
9254;SDS011;4663;49.120;9.730;2022-11-15T05:14:58;16.43;;;15.40;;
9254;SDS011;4663;49.120;9.730;2022-11-15T05:17:23;18.37;;;17.17;;
9254;SDS011;4663;49.120;9.730;2022-11-15T05:19:49;17.00;;;15.83;;
9254;SDS011;4663;49.120;9.730;2022-11-15T05:22:14;16.83;;;15.73;;
9254;SDS011;4663;49.120;9.730;2022-11-15T05:24:39;16.67;;;15.57;;
9254;SDS011;4663;49.120;9.730;2022-11-15T05:27:05;16.97;;;15.87;;
9254;SDS011;4663;49.120;9.730;2022-11-15T05:29:30;16.23;;;15.23;;
9254;SDS011;4663;49.120;9.730;2022-11-15T05:31:56;16.73;;;15.73;;
9254;SDS011;4663;49.120;9.730;2022-11-15T05:34:21;16.60;;;15.30;;
9254;SDS011;4663;49.120;9.730;2022-11-15T05:36:47;17.37;;;16.23;;
9254;SDS011;4663;49.120;9.730;2022-11-15T05:39:13;17.63;;;16.53;;
9254;SDS011;4663;49.120;9.730;2022-11-15T05:41:40;16.63;;;15.63;;
9254;SDS011;4663;49.120;9.730;2022-11-15T05:44:13;16.83;;;15.83;;
9254;SDS011;4663;49.120;9.730;2022-11-15T05:46:41;19.60;;;18.20;;
9254;SDS011;4663;49.120;9.730;2022-11-15T05:49:09;17.17;;;15.83;;
9254;SDS011;4663;49.120;9.730;2022-11-15T05:51:38;19.07;;;17.60;;
9254;SDS011;4663;49.120;9.730;2022-11-15T05:54:04;18.57;;;17.37;;
9254;SDS011;4663;49.120;9.730;2022-11-15T05:56:30;17.60;;;16.47;;
9254;SDS011;4663;49.120;9.730;2022-11-15T05:58:55;16.93;;;15.70;;
9254;SDS011;4663;49.120;9.730;2022-11-15T06:01:23;18.17;;;16.80;;
9254;SDS011;4663;49.120;9.730;2022-11-15T06:03:51;17.40;;;16.37;;
9254;SDS011;4663;49.120;9.730;2022-11-15T06:06:16;16.13;;;15.13;;
9254;SDS011;4663;49.120;9.730;2022-11-15T06:08:41;14.90;;;13.90;;
9254;SDS011;4663;49.120;9.730;2022-11-15T06:11:07;16.30;;;15.20;;
9254;SDS011;4663;49.120;9.730;2022-11-15T06:13:33;17.33;;;16.33;;
9254;SDS011;4663;49.120;9.730;2022-11-15T06:15:58;16.20;;;15.10;;
9254;SDS011;4663;49.120;9.730;2022-11-15T06:18:24;17.37;;;16.17;;
9254;SDS011;4663;49.120;9.730;2022-11-15T06:20:49;16.93;;;15.73;;
9254;SDS011;4663;49.120;9.730;2022-11-15T06:23:15;16.30;;;15.30;;
9254;SDS011;4663;49.120;9.730;2022-11-15T06:25:40;17.60;;;16.37;;
9254;SDS011;4663;49.120;9.730;2022-11-15T06:28:05;17.87;;;16.63;;
9254;SDS011;4663;49.120;9.730;2022-11-15T06:30:31;16.67;;;15.63;;
9254;SDS011;4663;49.120;9.730;2022-11-15T06:33:03;16.83;;;15.73;;
9254;SDS011;4663;49.120;9.730;2022-11-15T06:35:30;16.87;;;15.70;;
9254;SDS011;4663;49.120;9.730;2022-11-15T06:38:02;17.17;;;16.07;;
9254;SDS011;4663;49.120;9.730;2022-11-15T06:40:35;16.43;;;15.43;;
9254;SDS011;4663;49.120;9.730;2022-11-15T06:43:01;17.60;;;16.53;;
9254;SDS011;4663;49.120;9.730;2022-11-15T06:45:27;16.47;;;15.43;;
9254;SDS011;4663;49.120;9.730;2022-11-15T06:47:52;16.80;;;15.80;;
9254;SDS011;4663;49.120;9.730;2022-11-15T06:50:18;17.50;;;16.23;;
9254;SDS011;4663;49.120;9.730;2022-11-15T06:52:43;17.57;;;16.37;;
9254;SDS011;4663;49.120;9.730;2022-11-15T06:55:09;17.47;;;16.37;;
9254;SDS011;4663;49.120;9.730;2022-11-15T06:57:34;17.03;;;15.93;;
9254;SDS011;4663;49.120;9.730;2022-11-15T07:00:00;17.80;;;16.60;;
9254;SDS011;4663;49.120;9.730;2022-11-15T07:02:26;17.57;;;16.23;;
9254;SDS011;4663;49.120;9.730;2022-11-15T07:04:51;16.27;;;15.27;;
9254;SDS011;4663;49.120;9.730;2022-11-15T07:07:16;18.60;;;17.40;;
9254;SDS011;4663;49.120;9.730;2022-11-15T07:09:42;17.77;;;16.50;;
9254;SDS011;4663;49.120;9.730;2022-11-15T07:12:07;17.33;;;16.07;;
9254;SDS011;4663;49.120;9.730;2022-11-15T07:14:33;17.07;;;15.87;;
9254;SDS011;4663;49.120;9.730;2022-11-15T07:16:58;18.17;;;16.87;;
9254;SDS011;4663;49.120;9.730;2022-11-15T07:19:23;21.07;;;19.23;;
9254;SDS011;4663;49.120;9.730;2022-11-15T07:21:49;21.50;;;19.57;;
9254;SDS011;4663;49.120;9.730;2022-11-15T07:24:14;22.60;;;20.73;;
9254;SDS011;4663;49.120;9.730;2022-11-15T07:26:39;20.73;;;19.13;;
9254;SDS011;4663;49.120;9.730;2022-11-15T07:29:05;21.90;;;19.77;;
9254;SDS011;4663;49.120;9.730;2022-11-15T07:31:30;29.00;;;25.93;;
9254;SDS011;4663;49.120;9.730;2022-11-15T07:33:56;25.03;;;22.30;;
9254;SDS011;4663;49.120;9.730;2022-11-15T07:36:21;22.80;;;20.80;;
9254;SDS011;4663;49.120;9.730;2022-11-15T07:38:47;22.00;;;20.47;;
9254;SDS011;4663;49.120;9.730;2022-11-15T07:41:12;25.13;;;23.17;;
9254;SDS011;4663;49.120;9.730;2022-11-15T07:43:37;25.07;;;23.17;;
9254;SDS011;4663;49.120;9.730;2022-11-15T07:46:06;22.77;;;21.13;;
9254;SDS011;4663;49.120;9.730;2022-11-15T07:48:34;23.77;;;22.03;;
9254;SDS011;4663;49.120;9.730;2022-11-15T07:51:00;24.97;;;23.07;;
9254;SDS011;4663;49.120;9.730;2022-11-15T07:53:26;26.10;;;24.07;;
9254;SDS011;4663;49.120;9.730;2022-11-15T07:55:51;26.10;;;24.23;;
9254;SDS011;4663;49.120;9.730;2022-11-15T07:58:18;30.20;;;27.93;;
9254;SDS011;4663;49.120;9.730;2022-11-15T08:00:46;32.53;;;30.33;;
9254;SDS011;4663;49.120;9.730;2022-11-15T08:03:13;30.97;;;28.93;;
9254;SDS011;4663;49.120;9.730;2022-11-15T08:05:40;36.93;;;34.23;;
9254;SDS011;4663;49.120;9.730;2022-11-15T08:08:07;43.93;;;41.00;;
9254;SDS011;4663;49.120;9.730;2022-11-15T08:10:34;44.53;;;41.77;;
9254;SDS011;4663;49.120;9.730;2022-11-15T08:13:04;52.30;;;49.07;;
9254;SDS011;4663;49.120;9.730;2022-11-15T08:15:31;56.57;;;53.17;;
9254;SDS011;4663;49.120;9.730;2022-11-15T08:17:58;53.23;;;50.07;;
9254;SDS011;4663;49.120;9.730;2022-11-15T08:20:26;39.10;;;36.50;;
9254;SDS011;4663;49.120;9.730;2022-11-15T08:22:59;30.17;;;27.97;;
9254;SDS011;4663;49.120;9.730;2022-11-15T08:25:26;23.63;;;21.73;;
9254;SDS011;4663;49.120;9.730;2022-11-15T08:27:56;20.87;;;19.03;;
9254;SDS011;4663;49.120;9.730;2022-11-15T08:30:23;22.63;;;20.47;;
9254;SDS011;4663;49.120;9.730;2022-11-15T08:32:49;23.83;;;21.73;;
9254;SDS011;4663;49.120;9.730;2022-11-15T08:35:16;29.60;;;26.87;;
9254;SDS011;4663;49.120;9.730;2022-11-15T08:37:42;30.10;;;27.80;;
9254;SDS011;4663;49.120;9.730;2022-11-15T08:40:07;34.83;;;32.40;;
9254;SDS011;4663;49.120;9.730;2022-11-15T08:42:34;36.90;;;34.17;;
9254;SDS011;4663;49.120;9.730;2022-11-15T08:45:00;33.97;;;31.65;;
9254;SDS011;4663;49.120;9.730;2022-11-15T08:47:25;31.38;;;29.02;;
9254;SDS011;4663;49.120;9.730;2022-11-15T08:49:51;19.15;;;17.80;;
9254;SDS011;4663;49.120;9.730;2022-11-15T08:52:16;19.48;;;18.10;;
9254;SDS011;4663;49.120;9.730;2022-11-15T08:54:42;19.17;;;17.95;;
9254;SDS011;4663;49.120;9.730;2022-11-15T08:57:07;17.85;;;16.45;;
9254;SDS011;4663;49.120;9.730;2022-11-15T08:59:34;24.52;;;22.20;;
9254;SDS011;4663;49.120;9.730;2022-11-15T09:02:00;22.55;;;20.55;;
9254;SDS011;4663;49.120;9.730;2022-11-15T09:04:25;22.55;;;20.58;;
9254;SDS011;4663;49.120;9.730;2022-11-15T09:06:51;17.80;;;16.50;;
9254;SDS011;4663;49.120;9.730;2022-11-15T09:09:16;17.63;;;16.17;;
9254;SDS011;4663;49.120;9.730;2022-11-15T09:11:41;20.33;;;18.75;;
9254;SDS011;4663;49.120;9.730;2022-11-15T09:14:07;29.83;;;28.00;;
9254;SDS011;4663;49.120;9.730;2022-11-15T09:16:32;29.65;;;28.02;;
9254;SDS011;4663;49.120;9.730;2022-11-15T09:18:57;24.75;;;23.17;;
9254;SDS011;4663;49.120;9.730;2022-11-15T09:21:23;18.88;;;17.58;;
9254;SDS011;4663;49.120;9.730;2022-11-15T09:23:51;18.92;;;17.75;;
9254;SDS011;4663;49.120;9.730;2022-11-15T09:26:17;23.65;;;22.05;;
9254;SDS011;4663;49.120;9.730;2022-11-15T09:28:43;25.15;;;23.40;;
9254;SDS011;4663;49.120;9.730;2022-11-15T09:31:09;26.60;;;24.88;;
9254;SDS011;4663;49.120;9.730;2022-11-15T09:33:34;24.95;;;23.35;;
9254;SDS011;4663;49.120;9.730;2022-11-15T09:36:02;21.00;;;19.48;;
9254;SDS011;4663;49.120;9.730;2022-11-15T09:38:29;17.95;;;16.52;;
9254;SDS011;4663;49.120;9.730;2022-11-15T09:46:45;22.17;;;20.85;;
9254;SDS011;4663;49.120;9.730;2022-11-15T09:49:33;22.63;;;20.92;;
9254;SDS011;4663;49.120;9.730;2022-11-15T09:51:58;21.05;;;19.55;;
9254;SDS011;4663;49.120;9.730;2022-11-15T09:54:34;19.65;;;18.30;;
9254;SDS011;4663;49.120;9.730;2022-11-15T09:57:04;23.65;;;21.80;;
9254;SDS011;4663;49.120;9.730;2022-11-15T10:02:42;24.50;;;22.80;;
9254;SDS011;4663;49.120;9.730;2022-11-15T10:05:19;26.65;;;25.02;;
9254;SDS011;4663;49.120;9.730;2022-11-15T10:10:43;23.67;;;22.17;;
9254;SDS011;4663;49.120;9.730;2022-11-15T10:13:25;24.08;;;22.13;;
9254;SDS011;4663;49.120;9.730;2022-11-15T10:15:54;23.67;;;22.13;;
9254;SDS011;4663;49.120;9.730;2022-11-15T10:18:39;26.95;;;24.75;;
9254;SDS011;4663;49.120;9.730;2022-11-15T10:21:17;22.45;;;20.65;;
9254;SDS011;4663;49.120;9.730;2022-11-15T10:23:45;24.85;;;23.15;;
9254;SDS011;4663;49.120;9.730;2022-11-15T10:26:11;22.20;;;20.38;;
9254;SDS011;4663;49.120;9.730;2022-11-15T10:28:39;22.35;;;20.95;;
9254;SDS011;4663;49.120;9.730;2022-11-15T10:31:20;19.73;;;18.38;;
9254;SDS011;4663;49.120;9.730;2022-11-15T10:33:48;17.65;;;16.40;;
9254;SDS011;4663;49.120;9.730;2022-11-15T10:36:18;16.15;;;15.05;;
9254;SDS011;4663;49.120;9.730;2022-11-15T10:46:37;23.15;;;21.65;;
9254;SDS011;4663;49.120;9.730;2022-11-15T10:49:14;28.35;;;26.58;;
9254;SDS011;4663;49.120;9.730;2022-11-15T10:51:42;33.97;;;31.27;;
9254;SDS011;4663;49.120;9.730;2022-11-15T10:54:10;37.55;;;34.85;;
9254;SDS011;4663;49.120;9.730;2022-11-15T10:56:38;34.88;;;32.55;;
9254;SDS011;4663;49.120;9.730;2022-11-15T10:59:12;34.75;;;32.45;;
9254;SDS011;4663;49.120;9.730;2022-11-15T11:01:45;33.13;;;31.13;;
9254;SDS011;4663;49.120;9.730;2022-11-15T11:04:12;32.10;;;30.27;;
9254;SDS011;4663;49.120;9.730;2022-11-15T11:06:57;30.73;;;28.98;;
9254;SDS011;4663;49.120;9.730;2022-11-15T11:11:52;28.30;;;26.80;;
9254;SDS011;4663;49.120;9.730;2022-11-15T11:14:20;25.33;;;23.83;;
9254;SDS011;4663;49.120;9.730;2022-11-15T11:22:17;22.25;;;20.98;;
9254;SDS011;4663;49.120;9.730;2022-11-15T11:47:31;18.05;;;16.85;;
9254;SDS011;4663;49.120;9.730;2022-11-15T11:50:10;16.75;;;15.75;;
9254;SDS011;4663;49.120;9.730;2022-11-15T11:55:37;19.35;;;18.23;;
9254;SDS011;4663;49.120;9.730;2022-11-15T12:00:52;20.25;;;19.13;;
9254;SDS011;4663;49.120;9.730;2022-11-15T12:03:34;22.50;;;21.33;;
9254;SDS011;4663;49.120;9.730;2022-11-15T12:06:01;24.42;;;23.15;;
9254;SDS011;4663;49.120;9.730;2022-11-15T12:08:32;35.00;;;33.05;;
9254;SDS011;4663;49.120;9.730;2022-11-15T12:11:09;37.00;;;34.92;;
9254;SDS011;4663;49.120;9.730;2022-11-15T12:13:39;39.72;;;37.42;;
9254;SDS011;4663;49.120;9.730;2022-11-15T12:16:11;39.10;;;37.05;;
9254;SDS011;4663;49.120;9.730;2022-11-15T12:18:42;36.53;;;34.58;;
9254;SDS011;4663;49.120;9.730;2022-11-15T12:21:18;38.92;;;36.88;;
9254;SDS011;4663;49.120;9.730;2022-11-15T12:23:52;38.70;;;36.72;;
9254;SDS011;4663;49.120;9.730;2022-11-15T12:26:28;42.03;;;39.85;;
9254;SDS011;4663;49.120;9.730;2022-11-15T12:29:01;39.85;;;37.55;;
9254;SDS011;4663;49.120;9.730;2022-11-15T12:34:01;40.95;;;38.75;;
9254;SDS011;4663;49.120;9.730;2022-11-15T12:36:39;45.20;;;42.80;;
9254;SDS011;4663;49.120;9.730;2022-11-15T12:39:11;45.83;;;43.58;;
9254;SDS011;4663;49.120;9.730;2022-11-15T12:41:45;43.15;;;41.00;;
9254;SDS011;4663;49.120;9.730;2022-11-15T13:17:45;45.78;;;43.13;;
9254;SDS011;4663;49.120;9.730;2022-11-15T13:28:47;42.58;;;40.30;;
9254;SDS011;4663;49.120;9.730;2022-11-15T13:33:50;43.10;;;40.88;;
9254;SDS011;4663;49.120;9.730;2022-11-15T13:36:26;42.60;;;40.33;;
9254;SDS011;4663;49.120;9.730;2022-11-15T13:41:23;42.42;;;39.85;;
9254;SDS011;4663;49.120;9.730;2022-11-15T13:43:51;39.83;;;37.72;;
9254;SDS011;4663;49.120;9.730;2022-11-15T13:46:20;37.80;;;35.83;;
9254;SDS011;4663;49.120;9.730;2022-11-15T13:48:54;37.70;;;35.85;;
9254;SDS011;4663;49.120;9.730;2022-11-15T13:53:56;32.78;;;31.00;;
9254;SDS011;4663;49.120;9.730;2022-11-15T13:56:25;30.52;;;28.98;;
9254;SDS011;4663;49.120;9.730;2022-11-15T13:58:53;31.02;;;29.30;;
9254;SDS011;4663;49.120;9.730;2022-11-15T14:01:19;27.02;;;25.60;;
9254;SDS011;4663;49.120;9.730;2022-11-15T14:04:09;26.02;;;24.42;;
9254;SDS011;4663;49.120;9.730;2022-11-15T14:06:42;22.65;;;21.27;;
9254;SDS011;4663;49.120;9.730;2022-11-15T14:11:36;21.40;;;20.23;;
9254;SDS011;4663;49.120;9.730;2022-11-15T14:19:04;18.50;;;17.58;;
9254;SDS011;4663;49.120;9.730;2022-11-15T14:21:31;34.03;;;32.30;;
9254;SDS011;4663;49.120;9.730;2022-11-15T14:24:30;17.88;;;16.92;;
9254;SDS011;4663;49.120;9.730;2022-11-15T14:26:54;18.25;;;17.25;;
9254;SDS011;4663;49.120;9.730;2022-11-15T14:29:29;18.98;;;17.98;;
9254;SDS011;4663;49.120;9.730;2022-11-15T14:32:12;18.75;;;17.75;;
9254;SDS011;4663;49.120;9.730;2022-11-15T14:34:38;21.40;;;20.27;;
9254;SDS011;4663;49.120;9.730;2022-11-15T14:37:03;21.20;;;20.10;;
9254;SDS011;4663;49.120;9.730;2022-11-15T14:39:29;24.15;;;22.83;;
9254;SDS011;4663;49.120;9.730;2022-11-15T14:41:54;25.15;;;23.95;;
9254;SDS011;4663;49.120;9.730;2022-11-15T14:44:20;26.60;;;25.00;;
9254;SDS011;4663;49.120;9.730;2022-11-15T14:46:46;29.15;;;27.58;;
9254;SDS011;4663;49.120;9.730;2022-11-15T14:49:13;29.75;;;28.15;;
9254;SDS011;4663;49.120;9.730;2022-11-15T14:51:39;32.72;;;31.08;;
9254;SDS011;4663;49.120;9.730;2022-11-15T14:54:04;36.00;;;34.15;;
9254;SDS011;4663;49.120;9.730;2022-11-15T14:56:30;32.10;;;30.27;;
9254;SDS011;4663;49.120;9.730;2022-11-15T14:58:55;33.55;;;31.80;;
9254;SDS011;4663;49.120;9.730;2022-11-15T15:01:22;32.40;;;30.80;;
9254;SDS011;4663;49.120;9.730;2022-11-15T15:03:50;32.10;;;30.45;;
9254;SDS011;4663;49.120;9.730;2022-11-15T15:06:17;31.85;;;30.20;;
9254;SDS011;4663;49.120;9.730;2022-11-15T15:08:43;29.80;;;28.25;;
9254;SDS011;4663;49.120;9.730;2022-11-15T15:11:13;27.63;;;26.13;;
9254;SDS011;4663;49.120;9.730;2022-11-15T15:13:42;23.42;;;22.15;;
9254;SDS011;4663;49.120;9.730;2022-11-15T15:16:07;21.15;;;20.02;;
9254;SDS011;4663;49.120;9.730;2022-11-15T15:18:33;19.83;;;18.70;;
9254;SDS011;4663;49.120;9.730;2022-11-15T15:20:59;17.65;;;16.45;;
9254;SDS011;4663;49.120;9.730;2022-11-15T15:23:27;17.17;;;16.20;;
9254;SDS011;4663;49.120;9.730;2022-11-15T15:25:56;15.85;;;14.95;;
9254;SDS011;4663;49.120;9.730;2022-11-15T15:28:21;17.05;;;15.95;;
9254;SDS011;4663;49.120;9.730;2022-11-15T15:30:47;16.73;;;15.75;;
9254;SDS011;4663;49.120;9.730;2022-11-15T15:33:12;17.30;;;16.33;;
9254;SDS011;4663;49.120;9.730;2022-11-15T15:35:38;18.77;;;17.80;;
9254;SDS011;4663;49.120;9.730;2022-11-15T15:38:03;19.05;;;17.95;;
9254;SDS011;4663;49.120;9.730;2022-11-15T15:40:29;20.52;;;19.35;;
9254;SDS011;4663;49.120;9.730;2022-11-15T15:42:56;22.08;;;20.75;;
9254;SDS011;4663;49.120;9.730;2022-11-15T15:45:21;21.42;;;20.33;;
9254;SDS011;4663;49.120;9.730;2022-11-15T15:47:47;23.90;;;22.60;;
9254;SDS011;4663;49.120;9.730;2022-11-15T15:52:46;28.13;;;26.58;;
9254;SDS011;4663;49.120;9.730;2022-11-15T15:55:11;27.13;;;25.67;;
9254;SDS011;4663;49.120;9.730;2022-11-15T15:57:36;25.60;;;24.25;;
9254;SDS011;4663;49.120;9.730;2022-11-15T16:00:03;24.90;;;23.67;;
9254;SDS011;4663;49.120;9.730;2022-11-15T16:02:29;25.90;;;24.52;;
9254;SDS011;4663;49.120;9.730;2022-11-15T16:04:55;27.50;;;26.02;;
9254;SDS011;4663;49.120;9.730;2022-11-15T16:07:21;28.83;;;26.95;;
9254;SDS011;4663;49.120;9.730;2022-11-15T16:09:48;26.55;;;25.23;;
9254;SDS011;4663;49.120;9.730;2022-11-15T16:14:52;27.27;;;25.75;;
9254;SDS011;4663;49.120;9.730;2022-11-15T16:17:19;27.50;;;26.05;;
9254;SDS011;4663;49.120;9.730;2022-11-15T16:19:46;28.10;;;26.48;;
9254;SDS011;4663;49.120;9.730;2022-11-15T16:22:11;27.67;;;26.27;;
9254;SDS011;4663;49.120;9.730;2022-11-15T16:24:37;27.67;;;26.27;;
9254;SDS011;4663;49.120;9.730;2022-11-15T16:27:02;26.38;;;25.00;;
9254;SDS011;4663;49.120;9.730;2022-11-15T16:29:28;26.05;;;24.65;;
9254;SDS011;4663;49.120;9.730;2022-11-15T16:31:53;26.02;;;24.42;;
9254;SDS011;4663;49.120;9.730;2022-11-15T16:34:19;25.42;;;24.10;;
9254;SDS011;4663;49.120;9.730;2022-11-15T16:36:44;24.38;;;23.13;;
9254;SDS011;4663;49.120;9.730;2022-11-15T16:39:13;24.00;;;22.70;;
9254;SDS011;4663;49.120;9.730;2022-11-15T16:41:40;24.00;;;22.80;;
9254;SDS011;4663;49.120;9.730;2022-11-15T16:44:08;20.70;;;19.55;;
9254;SDS011;4663;49.120;9.730;2022-11-15T16:46:33;20.98;;;19.83;;
9254;SDS011;4663;49.120;9.730;2022-11-15T16:48:59;20.02;;;18.83;;
9254;SDS011;4663;49.120;9.730;2022-11-15T16:51:24;20.13;;;18.95;;
9254;SDS011;4663;49.120;9.730;2022-11-15T16:53:49;20.05;;;18.58;;
9254;SDS011;4663;49.120;9.730;2022-11-15T16:56:30;18.90;;;17.75;;
9254;SDS011;4663;49.120;9.730;2022-11-15T16:58:56;16.55;;;15.60;;
9254;SDS011;4663;49.120;9.730;2022-11-15T17:01:55;16.65;;;15.65;;
9254;SDS011;4663;49.120;9.730;2022-11-15T17:04:17;16.10;;;15.20;;
9254;SDS011;4663;49.120;9.730;2022-11-15T17:06:47;16.60;;;15.70;;
9254;SDS011;4663;49.120;9.730;2022-11-15T17:09:13;15.13;;;14.13;;
9254;SDS011;4663;49.120;9.730;2022-11-15T17:11:43;16.17;;;15.10;;
9254;SDS011;4663;49.120;9.730;2022-11-15T17:14:09;17.02;;;15.82;;
9254;SDS011;4663;49.120;9.730;2022-11-15T17:16:35;19.50;;;18.27;;
9254;SDS011;4663;49.120;9.730;2022-11-15T17:19:06;16.65;;;15.45;;
9254;SDS011;4663;49.120;9.730;2022-11-15T17:21:31;16.92;;;15.85;;
9254;SDS011;4663;49.120;9.730;2022-11-15T17:23:57;17.27;;;16.17;;
9254;SDS011;4663;49.120;9.730;2022-11-15T17:26:23;16.73;;;15.63;;